sensor_id;sensor_type;location;lat;lon;timestamp;pressure;altitude;pressure_sealevel;temperature;humidity
74346;BME280;62776;50.518;6.732;2023-02-14T00:00:15;98282.81;;;4.07;100.00
74346;BME280;62776;50.518;6.732;2023-02-14T00:03:02;98287.81;;;4.04;100.00
74346;BME280;62776;50.518;6.732;2023-02-14T00:05:48;98285.13;;;4.01;100.00
74346;BME280;62776;50.518;6.732;2023-02-14T00:08:37;98278.84;;;3.95;100.00
74346;BME280;62776;50.518;6.732;2023-02-14T00:11:31;98275.53;;;3.97;100.00
74346;BME280;62776;50.518;6.732;2023-02-14T00:14:18;98269.97;;;3.88;100.00
74346;BME280;62776;50.518;6.732;2023-02-14T00:17:23;98278.84;;;3.95;100.00
74346;BME280;62776;50.518;6.732;2023-02-14T00:20:10;98278.09;;;3.97;100.00
74346;BME280;62776;50.518;6.732;2023-02-14T00:22:57;98276.28;;;3.95;100.00
74346;BME280;62776;50.518;6.732;2023-02-14T00:25:45;98263.97;;;3.88;100.00
74346;BME280;62776;50.518;6.732;2023-02-14T00:28:32;98271.53;;;3.85;100.00
74346;BME280;62776;50.518;6.732;2023-02-14T00:31:21;98269.66;;;3.81;100.00
74346;BME280;62776;50.518;6.732;2023-02-14T00:34:10;98262.56;;;3.75;100.00
74346;BME280;62776;50.518;6.732;2023-02-14T00:37:03;98264.88;;;3.69;100.00
74346;BME280;62776;50.518;6.732;2023-02-14T00:39:56;98260.53;;;3.68;100.00
74346;BME280;62776;50.518;6.732;2023-02-14T00:42:43;98260.41;;;3.65;100.00
74346;BME280;62776;50.518;6.732;2023-02-14T00:45:31;98256.06;;;3.64;100.00
74346;BME280;62776;50.518;6.732;2023-02-14T00:48:18;98248.97;;;3.58;100.00
74346;BME280;62776;50.518;6.732;2023-02-14T00:51:05;98253.09;;;3.55;100.00
74346;BME280;62776;50.518;6.732;2023-02-14T00:53:59;98239.97;;;3.49;100.00
74346;BME280;62776;50.518;6.732;2023-02-14T00:56:47;98236.59;;;3.50;100.00
74346;BME280;62776;50.518;6.732;2023-02-14T00:59:37;98235.66;;;3.48;100.00
74346;BME280;62776;50.518;6.732;2023-02-14T01:02:24;98230.50;;;3.48;100.00
74346;BME280;62776;50.518;6.732;2023-02-14T01:05:10;98232.25;;;3.49;100.00
74346;BME280;62776;50.518;6.732;2023-02-14T01:07:59;98229.81;;;3.52;100.00
74346;BME280;62776;50.518;6.732;2023-02-14T01:10:45;98227.25;;;3.52;100.00
74346;BME280;62776;50.518;6.732;2023-02-14T01:13:33;98234.09;;;3.51;100.00
74346;BME280;62776;50.518;6.732;2023-02-14T01:16:26;98227.00;;;3.46;100.00
74346;BME280;62776;50.518;6.732;2023-02-14T01:19:13;98224.69;;;3.52;100.00
74346;BME280;62776;50.518;6.732;2023-02-14T01:22:02;98227.84;;;3.46;100.00
74346;BME280;62776;50.518;6.732;2023-02-14T01:24:48;98227.84;;;3.46;100.00
74346;BME280;62776;50.518;6.732;2023-02-14T01:27:36;98220.09;;;3.45;100.00
74346;BME280;62776;50.518;6.732;2023-02-14T01:30:23;98225.09;;;3.42;100.00
74346;BME280;62776;50.518;6.732;2023-02-14T01:33:15;98213.31;;;3.47;100.00
74346;BME280;62776;50.518;6.732;2023-02-14T01:36:02;98212.38;;;3.45;100.00
74346;BME280;62776;50.518;6.732;2023-02-14T01:38:52;98216.59;;;3.43;100.00
74346;BME280;62776;50.518;6.732;2023-02-14T01:41:42;98209.81;;;3.45;100.00
74346;BME280;62776;50.518;6.732;2023-02-14T01:47:27;98217.38;;;3.42;100.00
74346;BME280;62776;50.518;6.732;2023-02-14T01:50:35;98217.59;;;3.27;100.00
74346;BME280;62776;50.518;6.732;2023-02-14T01:53:27;98213.19;;;3.44;100.00
74346;BME280;62776;50.518;6.732;2023-02-14T01:56:22;98209.13;;;3.49;100.00
74346;BME280;62776;50.518;6.732;2023-02-14T01:59:13;98217.84;;;3.52;100.00
74346;BME280;62776;50.518;6.732;2023-02-14T02:02:01;98215.50;;;3.57;100.00
74346;BME280;62776;50.518;6.732;2023-02-14T02:04:48;98210.47;;;3.60;100.00
74346;BME280;62776;50.518;6.732;2023-02-14T02:07:38;98209.53;;;3.58;100.00
74346;BME280;62776;50.518;6.732;2023-02-14T02:10:30;98207.84;;;3.58;100.00
74346;BME280;62776;50.518;6.732;2023-02-14T02:13:20;98196.53;;;3.55;100.00
74346;BME280;62776;50.518;6.732;2023-02-14T02:20:02;98199.53;;;3.45;100.00
74346;BME280;62776;50.518;6.732;2023-02-14T02:51:53;98197.44;;;3.36;100.00
74346;BME280;62776;50.518;6.732;2023-02-14T02:55:08;98200.00;;;3.36;100.00
74346;BME280;62776;50.518;6.732;2023-02-14T02:57:58;98202.75;;;3.41;100.00
74346;BME280;62776;50.518;6.732;2023-02-14T03:00:49;98195.88;;;3.40;100.00
74346;BME280;62776;50.518;6.732;2023-02-14T03:03:38;98188.97;;;3.39;100.00
74346;BME280;62776;50.518;6.732;2023-02-14T03:06:44;98191.50;;;3.37;100.00
74346;BME280;62776;50.518;6.732;2023-02-14T03:25:14;98206.16;;;3.02;100.00
74346;BME280;62776;50.518;6.732;2023-02-14T03:32:26;98191.81;;;3.07;100.00
74346;BME280;62776;50.518;6.732;2023-02-14T03:40:50;98187.50;;;3.06;100.00
74346;BME280;62776;50.518;6.732;2023-02-14T03:43:50;98193.50;;;3.06;100.00
74346;BME280;62776;50.518;6.732;2023-02-14T03:47:13;98202.09;;;2.87;100.00
74346;BME280;62776;50.518;6.732;2023-02-14T03:50:17;98198.75;;;3.08;100.00
74346;BME280;62776;50.518;6.732;2023-02-14T03:53:07;98209.06;;;3.09;100.00
74346;BME280;62776;50.518;6.732;2023-02-14T03:59:07;98200.63;;;3.12;100.00
74346;BME280;62776;50.518;6.732;2023-02-14T04:05:18;98196.69;;;3.20;100.00
74346;BME280;62776;50.518;6.732;2023-02-14T04:08:06;98189.06;;;3.21;100.00
74346;BME280;62776;50.518;6.732;2023-02-14T04:11:02;98198.59;;;3.24;100.00
74346;BME280;62776;50.518;6.732;2023-02-14T04:13:51;98193.59;;;3.27;100.00
74346;BME280;62776;50.518;6.732;2023-02-14T04:16:37;98190.94;;;3.25;100.00
74346;BME280;62776;50.518;6.732;2023-02-14T04:19:44;98188.19;;;3.21;100.00
74346;BME280;62776;50.518;6.732;2023-02-14T04:22:30;98187.22;;;3.19;100.00
74346;BME280;62776;50.518;6.732;2023-02-14T04:25:17;98193.97;;;3.17;100.00
74346;BME280;62776;50.518;6.732;2023-02-14T04:28:04;98190.47;;;3.15;100.00
74346;BME280;62776;50.518;6.732;2023-02-14T04:30:51;98192.91;;;3.12;100.00
74346;BME280;62776;50.518;6.732;2023-02-14T04:33:38;98189.59;;;3.14;100.00
74346;BME280;62776;50.518;6.732;2023-02-14T04:36:24;98184.25;;;3.10;100.00
74346;BME280;62776;50.518;6.732;2023-02-14T04:39:16;98188.31;;;3.05;100.00
74346;BME280;62776;50.518;6.732;2023-02-14T04:42:03;98182.28;;;3.04;100.00
74346;BME280;62776;50.518;6.732;2023-02-14T04:44:50;98184.03;;;3.05;100.00
74346;BME280;62776;50.518;6.732;2023-02-14T04:47:37;98178.84;;;3.04;100.00
74346;BME280;62776;50.518;6.732;2023-02-14T04:50:23;98177.81;;;3.00;100.00
74346;BME280;62776;50.518;6.732;2023-02-14T04:53:11;98174.44;;;3.01;100.00
74346;BME280;62776;50.518;6.732;2023-02-14T04:55:59;98168.56;;;3.04;100.00
74346;BME280;62776;50.518;6.732;2023-02-14T04:58:45;98174.44;;;3.01;100.00
74346;BME280;62776;50.518;6.732;2023-02-14T05:01:31;98166.66;;;2.99;100.00
74346;BME280;62776;50.518;6.732;2023-02-14T05:04:17;98169.13;;;2.96;100.00
74346;BME280;62776;50.518;6.732;2023-02-14T05:07:07;98171.25;;;2.87;100.00
74346;BME280;62776;50.518;6.732;2023-02-14T05:09:53;98168.69;;;2.87;100.00
74346;BME280;62776;50.518;6.732;2023-02-14T05:12:40;98169.50;;;2.86;100.00
74346;BME280;62776;50.518;6.732;2023-02-14T05:15:27;98160.72;;;2.81;100.00
74346;BME280;62776;50.518;6.732;2023-02-14T05:18:13;98162.19;;;2.76;100.00
74346;BME280;62776;50.518;6.732;2023-02-14T05:21:00;98168.97;;;2.74;100.00
74346;BME280;62776;50.518;6.732;2023-02-14T05:23:49;98167.66;;;2.65;100.00
74346;BME280;62776;50.518;6.732;2023-02-14T05:26:35;98159.19;;;2.67;100.00
74346;BME280;62776;50.518;6.732;2023-02-14T05:29:22;98149.75;;;2.66;100.00
74346;BME280;62776;50.518;6.732;2023-02-14T05:32:08;98158.25;;;2.65;100.00
74346;BME280;62776;50.518;6.732;2023-02-14T05:34:54;98152.09;;;2.62;100.00
74346;BME280;62776;50.518;6.732;2023-02-14T05:37:40;98154.63;;;2.60;100.00
74346;BME280;62776;50.518;6.732;2023-02-14T05:40:27;98152.69;;;2.56;100.00
74346;BME280;62776;50.518;6.732;2023-02-14T05:43:13;98151.81;;;2.56;100.00
74346;BME280;62776;50.518;6.732;2023-02-14T05:46:00;98152.69;;;2.56;100.00
74346;BME280;62776;50.518;6.732;2023-02-14T05:48:46;98155.34;;;2.58;100.00
74346;BME280;62776;50.518;6.732;2023-02-14T05:51:33;98156.94;;;2.56;100.00
74346;BME280;62776;50.518;6.732;2023-02-14T05:54:27;98157.69;;;2.53;100.00
74346;BME280;62776;50.518;6.732;2023-02-14T05:57:13;98143.91;;;2.51;100.00
74346;BME280;62776;50.518;6.732;2023-02-14T06:00:04;98151.47;;;2.48;100.00
74346;BME280;62776;50.518;6.732;2023-02-14T06:02:52;98149.84;;;2.50;100.00
74346;BME280;62776;50.518;6.732;2023-02-14T06:05:40;98156.69;;;2.50;100.00
74346;BME280;62776;50.518;6.732;2023-02-14T06:08:27;98154.97;;;2.50;100.00
74346;BME280;62776;50.518;6.732;2023-02-14T06:11:15;98156.88;;;2.54;100.00
74346;BME280;62776;50.518;6.732;2023-02-14T06:14:02;98154.47;;;2.57;100.00
74346;BME280;62776;50.518;6.732;2023-02-14T06:16:48;98157.84;;;2.56;100.00
74346;BME280;62776;50.518;6.732;2023-02-14T06:19:35;98156.09;;;2.55;100.00
74346;BME280;62776;50.518;6.732;2023-02-14T06:22:24;98158.66;;;2.55;100.00
74346;BME280;62776;50.518;6.732;2023-02-14T06:25:10;98154.47;;;2.57;100.00
74346;BME280;62776;50.518;6.732;2023-02-14T06:27:57;98151.91;;;2.57;100.00
74346;BME280;62776;50.518;6.732;2023-02-14T06:30:46;98151.78;;;2.73;100.00
74346;BME280;62776;50.518;6.732;2023-02-14T06:33:32;98147.13;;;2.84;100.00
74346;BME280;62776;50.518;6.732;2023-02-14T06:36:20;98145.72;;;2.90;100.00
74346;BME280;62776;50.518;6.732;2023-02-14T06:39:07;98149.78;;;3.05;100.00
74346;BME280;62776;50.518;6.732;2023-02-14T06:41:55;98156.47;;;3.20;100.00
74346;BME280;62776;50.518;6.732;2023-02-14T06:44:41;98156.94;;;3.31;100.00
74346;BME280;62776;50.518;6.732;2023-02-14T06:47:29;98159.81;;;3.38;100.00
74346;BME280;62776;50.518;6.732;2023-02-14T06:50:15;98153.94;;;3.41;100.00
74346;BME280;62776;50.518;6.732;2023-02-14T06:53:03;98158.44;;;3.46;100.00
74346;BME280;62776;50.518;6.732;2023-02-14T06:55:54;98155.53;;;3.58;100.00
74346;BME280;62776;50.518;6.732;2023-02-14T06:58:40;98149.84;;;3.65;100.00
74346;BME280;62776;50.518;6.732;2023-02-14T07:01:28;98155.22;;;3.71;100.00
74346;BME280;62776;50.518;6.732;2023-02-14T07:04:14;98155.19;;;3.70;100.00
74346;BME280;62776;50.518;6.732;2023-02-14T07:07:04;98147.38;;;3.68;100.00
74346;BME280;62776;50.518;6.732;2023-02-14T07:09:52;98147.59;;;3.73;100.00
74346;BME280;62776;50.518;6.732;2023-02-14T07:12:44;98153.66;;;3.75;100.00
74346;BME280;62776;50.518;6.732;2023-02-14T07:15:30;98146.03;;;3.76;100.00
74346;BME280;62776;50.518;6.732;2023-02-14T07:18:17;98153.97;;;3.82;100.00
74346;BME280;62776;50.518;6.732;2023-02-14T07:21:04;98153.94;;;3.81;100.00
74346;BME280;62776;50.518;6.732;2023-02-14T07:23:51;98152.50;;;3.87;100.00
74346;BME280;62776;50.518;6.732;2023-02-14T07:26:38;98150.03;;;3.90;100.00
74346;BME280;62776;50.518;6.732;2023-02-14T07:29:29;98141.63;;;3.94;100.00
74346;BME280;62776;50.518;6.732;2023-02-14T07:32:19;98148.41;;;3.92;100.00
74346;BME280;62776;50.518;6.732;2023-02-14T07:35:06;98152.31;;;4.03;100.00
74346;BME280;62776;50.518;6.732;2023-02-14T07:37:54;98151.47;;;4.04;100.00
74346;BME280;62776;50.518;6.732;2023-02-14T07:40:44;98143.41;;;4.17;100.00
74346;BME280;62776;50.518;6.732;2023-02-14T07:43:30;98150.50;;;4.23;100.00
74346;BME280;62776;50.518;6.732;2023-02-14T07:46:27;98148.19;;;4.29;100.00
74346;BME280;62776;50.518;6.732;2023-02-14T07:49:14;98152.81;;;4.38;100.00
74346;BME280;62776;50.518;6.732;2023-02-14T07:52:03;98153.16;;;4.47;100.00
74346;BME280;62776;50.518;6.732;2023-02-14T07:54:50;98155.16;;;4.54;100.00
74346;BME280;62776;50.518;6.732;2023-02-14T07:57:40;98159.50;;;4.55;100.00
74346;BME280;62776;50.518;6.732;2023-02-14T08:00:33;98152.97;;;4.64;100.00
74346;BME280;62776;50.518;6.732;2023-02-14T08:03:19;98156.72;;;4.72;100.00
74346;BME280;62776;50.518;6.732;2023-02-14T08:06:06;98160.38;;;4.78;100.00
74346;BME280;62776;50.518;6.732;2023-02-14T08:08:58;98167.38;;;4.82;100.00
74346;BME280;62776;50.518;6.732;2023-02-14T08:11:45;98161.81;;;4.93;100.00
74346;BME280;62776;50.518;6.732;2023-02-14T08:14:51;98158.63;;;5.00;100.00
74346;BME280;62776;50.518;6.732;2023-02-14T08:17:45;98153.94;;;5.12;100.00
74346;BME280;62776;50.518;6.732;2023-02-14T08:20:32;98157.72;;;5.22;100.00
74346;BME280;62776;50.518;6.732;2023-02-14T08:23:22;98159.63;;;5.27;100.00
74346;BME280;62776;50.518;6.732;2023-02-14T08:26:09;98148.06;;;5.40;100.00
74346;BME280;62776;50.518;6.732;2023-02-14T08:28:57;98152.78;;;5.52;100.00
74346;BME280;62776;50.518;6.732;2023-02-14T08:31:45;98151.38;;;5.61;100.00
74346;BME280;62776;50.518;6.732;2023-02-14T08:34:32;98156.09;;;5.73;100.00
74346;BME280;62776;50.518;6.732;2023-02-14T08:37:23;98158.16;;;5.83;100.00
74346;BME280;62776;50.518;6.732;2023-02-14T08:40:09;98162.09;;;5.97;100.00
74346;BME280;62776;50.518;6.732;2023-02-14T08:42:57;98164.13;;;6.06;100.00
74346;BME280;62776;50.518;6.732;2023-02-14T08:45:52;98162.66;;;6.14;100.00
74346;BME280;62776;50.518;6.732;2023-02-14T08:48:39;98157.03;;;6.25;100.00
74346;BME280;62776;50.518;6.732;2023-02-14T08:51:27;98148.63;;;6.32;100.00
74346;BME280;62776;50.518;6.732;2023-02-14T08:54:19;98152.50;;;6.45;100.00
74346;BME280;62776;50.518;6.732;2023-02-14T08:57:09;98149.38;;;6.57;100.00
74346;BME280;62776;50.518;6.732;2023-02-14T08:59:56;98146.28;;;6.67;100.00
74346;BME280;62776;50.518;6.732;2023-02-14T09:02:43;98144.88;;;6.78;100.00
74346;BME280;62776;50.518;6.732;2023-02-14T09:05:30;98145.88;;;6.83;100.00
74346;BME280;62776;50.518;6.732;2023-02-14T09:08:19;98146.09;;;6.90;100.00
74346;BME280;62776;50.518;6.732;2023-02-14T09:14:00;98153.63;;;7.11;100.00
74346;BME280;62776;50.518;6.732;2023-02-14T09:16:47;98151.28;;;7.20;100.00
74346;BME280;62776;50.518;6.732;2023-02-14T09:19:39;98154.09;;;7.28;100.00
74346;BME280;62776;50.518;6.732;2023-02-14T09:22:26;98156.91;;;7.35;100.00
74346;BME280;62776;50.518;6.732;2023-02-14T09:25:23;98153.53;;;7.39;100.00
74346;BME280;62776;50.518;6.732;2023-02-14T09:28:10;98160.75;;;7.49;99.93
74346;BME280;62776;50.518;6.732;2023-02-14T09:30:56;98155.88;;;7.61;96.52
74346;BME280;62776;50.518;6.732;2023-02-14T09:33:44;98153.56;;;7.72;95.03
74346;BME280;62776;50.518;6.732;2023-02-14T09:36:31;98153.78;;;7.80;95.10
74346;BME280;62776;50.518;6.732;2023-02-14T09:39:37;98157.38;;;7.85;93.93
74346;BME280;62776;50.518;6.732;2023-02-14T09:42:48;98158.28;;;7.87;92.94
74346;BME280;62776;50.518;6.732;2023-02-14T09:45:40;98154.22;;;7.96;94.17
74346;BME280;62776;50.518;6.732;2023-02-14T09:48:36;98146.56;;;8.01;92.80
74346;BME280;62776;50.518;6.732;2023-02-14T09:51:27;98146.94;;;8.16;92.96
74346;BME280;62776;50.518;6.732;2023-02-14T09:54:25;98141.88;;;8.20;92.89
74346;BME280;62776;50.518;6.732;2023-02-14T09:57:35;98143.59;;;8.20;92.10
74346;BME280;62776;50.518;6.732;2023-02-14T10:00:36;98151.50;;;8.26;92.27
74346;BME280;62776;50.518;6.732;2023-02-14T10:03:39;98150.03;;;8.36;90.10
74346;BME280;62776;50.518;6.732;2023-02-14T10:13:09;98146.53;;;8.71;84.14
74346;BME280;62776;50.518;6.732;2023-02-14T10:16:21;98136.06;;;8.65;84.04
74346;BME280;62776;50.518;6.732;2023-02-14T10:19:31;98140.53;;;8.72;83.41
74346;BME280;62776;50.518;6.732;2023-02-14T10:22:24;98130.66;;;8.96;81.32
74346;BME280;62776;50.518;6.732;2023-02-14T10:25:25;98123.91;;;9.03;82.43
74346;BME280;62776;50.518;6.732;2023-02-14T10:28:15;98132.94;;;9.21;81.10
74346;BME280;62776;50.518;6.732;2023-02-14T10:31:23;98133.88;;;9.25;77.71
74346;BME280;62776;50.518;6.732;2023-02-14T10:34:28;98129.03;;;9.43;78.71
74346;BME280;62776;50.518;6.732;2023-02-14T10:50:34;98109.41;;;10.05;76.17
74346;BME280;62776;50.518;6.732;2023-02-14T10:56:59;98111.38;;;10.20;68.77
74346;BME280;62776;50.518;6.732;2023-02-14T10:59:58;98106.41;;;10.32;68.06
74346;BME280;62776;50.518;6.732;2023-02-14T11:02:51;98104.78;;;10.40;68.76
74346;BME280;62776;50.518;6.732;2023-02-14T11:05:46;98103.19;;;10.48;71.31
74346;BME280;62776;50.518;6.732;2023-02-14T11:08:36;98097.19;;;10.53;66.90
74346;BME280;62776;50.518;6.732;2023-02-14T11:11:30;98092.19;;;10.65;63.53
74346;BME280;62776;50.518;6.732;2023-02-14T11:14:34;98093.19;;;10.78;65.42
74346;BME280;62776;50.518;6.732;2023-02-14T11:17:29;98094.09;;;10.80;64.77
74346;BME280;62776;50.518;6.732;2023-02-14T11:20:32;98085.53;;;10.89;62.73
74346;BME280;62776;50.518;6.732;2023-02-14T11:23:20;98089.22;;;11.06;63.60
74346;BME280;62776;50.518;6.732;2023-02-14T11:26:29;98085.78;;;11.07;64.53
74346;BME280;62776;50.518;6.732;2023-02-14T11:29:24;98084.94;;;11.09;64.85
74346;BME280;62776;50.518;6.732;2023-02-14T11:32:20;98084.97;;;11.12;63.93
74346;BME280;62776;50.518;6.732;2023-02-14T11:35:21;98075.38;;;11.10;64.39
74346;BME280;62776;50.518;6.732;2023-02-14T11:41:19;98078.16;;;11.23;67.27
74346;BME280;62776;50.518;6.732;2023-02-14T11:44:19;98074.63;;;11.17;65.67
74346;BME280;62776;50.518;6.732;2023-02-14T11:47:33;98066.00;;;11.22;63.73
74346;BME280;62776;50.518;6.732;2023-02-14T11:50:23;98053.97;;;11.34;65.64
74346;BME280;62776;50.518;6.732;2023-02-14T11:53:12;98049.69;;;11.39;65.82
74346;BME280;62776;50.518;6.732;2023-02-14T11:56:12;98041.94;;;11.45;68.37
74346;BME280;62776;50.518;6.732;2023-02-14T11:59:04;98045.50;;;11.53;64.31
74346;BME280;62776;50.518;6.732;2023-02-14T12:01:51;98030.81;;;11.62;62.42
74346;BME280;62776;50.518;6.732;2023-02-14T12:04:41;98028.28;;;11.67;61.90
74346;BME280;62776;50.518;6.732;2023-02-14T12:07:34;98020.53;;;11.71;60.97
74346;BME280;62776;50.518;6.732;2023-02-14T12:10:24;98028.38;;;11.76;60.68
74346;BME280;62776;50.518;6.732;2023-02-14T12:15:58;98022.38;;;11.84;63.45
74346;BME280;62776;50.518;6.732;2023-02-14T12:19:06;98017.06;;;11.74;62.43
74346;BME280;62776;50.518;6.732;2023-02-14T12:21:59;98013.66;;;11.84;62.70
74346;BME280;62776;50.518;6.732;2023-02-14T12:27:55;98001.66;;;12.01;62.54
74346;BME280;62776;50.518;6.732;2023-02-14T12:30:43;98002.53;;;12.06;64.08
74346;BME280;62776;50.518;6.732;2023-02-14T12:33:41;97999.03;;;12.01;61.30
74346;BME280;62776;50.518;6.732;2023-02-14T12:37:05;97995.56;;;11.99;62.96
74346;BME280;62776;50.518;6.732;2023-02-14T12:40:09;97993.88;;;12.06;62.51
74346;BME280;62776;50.518;6.732;2023-02-14T12:43:13;97993.03;;;12.08;61.32
74346;BME280;62776;50.518;6.732;2023-02-14T12:46:29;98000.81;;;12.05;60.60
74346;BME280;62776;50.518;6.732;2023-02-14T12:52:38;97980.88;;;12.10;63.05
74346;BME280;62776;50.518;6.732;2023-02-14T13:01:46;97971.38;;;12.21;60.75
74346;BME280;62776;50.518;6.732;2023-02-14T13:07:54;97965.31;;;12.24;58.10
74346;BME280;62776;50.518;6.732;2023-02-14T13:14:56;97953.97;;;12.11;60.10
74346;BME280;62776;50.518;6.732;2023-02-14T13:17:58;97941.00;;;12.25;59.99
74346;BME280;62776;50.518;6.732;2023-02-14T13:20:54;97945.34;;;12.27;61.56
74346;BME280;62776;50.518;6.732;2023-02-14T13:23:47;97941.03;;;12.32;60.29
74346;BME280;62776;50.518;6.732;2023-02-14T13:26:39;97935.78;;;12.29;58.79
74346;BME280;62776;50.518;6.732;2023-02-14T13:29:40;97935.78;;;12.26;61.59
74346;BME280;62776;50.518;6.732;2023-02-14T13:32:32;97931.44;;;12.28;61.23
74346;BME280;62776;50.518;6.732;2023-02-14T13:35:22;97921.03;;;12.31;60.58
74346;BME280;62776;50.518;6.732;2023-02-14T13:38:13;97927.13;;;12.32;59.19
74346;BME280;62776;50.518;6.732;2023-02-14T13:41:01;97907.13;;;12.32;60.18
74346;BME280;62776;50.518;6.732;2023-02-14T13:43:58;97915.84;;;12.36;60.33
74346;BME280;62776;50.518;6.732;2023-02-14T13:46:49;97912.34;;;12.29;61.90
74346;BME280;62776;50.518;6.732;2023-02-14T13:49:45;97908.84;;;12.24;60.98
74346;BME280;62776;50.518;6.732;2023-02-14T13:52:45;97907.09;;;12.22;60.30
74346;BME280;62776;50.518;6.732;2023-02-14T13:55:35;97894.91;;;12.25;62.26
74346;BME280;62776;50.518;6.732;2023-02-14T13:58:21;97896.66;;;12.26;62.46
74346;BME280;62776;50.518;6.732;2023-02-14T14:07:20;97892.34;;;12.27;60.33
74346;BME280;62776;50.518;6.732;2023-02-14T14:10:10;97886.25;;;12.26;61.24
74346;BME280;62776;50.518;6.732;2023-02-14T14:13:01;97887.09;;;12.25;60.87
74346;BME280;62776;50.518;6.732;2023-02-14T14:22:13;97877.56;;;12.24;58.67
74346;BME280;62776;50.518;6.732;2023-02-14T14:25:04;97881.00;;;12.28;58.20
74346;BME280;62776;50.518;6.732;2023-02-14T14:27:50;97882.78;;;12.36;56.18
74346;BME280;62776;50.518;6.732;2023-02-14T14:30:37;97878.41;;;12.28;56.97
74346;BME280;62776;50.518;6.732;2023-02-14T14:33:32;97884.31;;;11.86;59.03
74346;BME280;62776;50.518;6.732;2023-02-14T14:36:22;97885.31;;;12.17;56.66
74346;BME280;62776;50.518;6.732;2023-02-14T14:39:09;97875.81;;;12.28;56.16
74346;BME280;62776;50.518;6.732;2023-02-14T14:42:05;97875.81;;;12.22;57.54
74346;BME280;62776;50.518;6.732;2023-02-14T14:44:57;97868.81;;;12.22;55.72
74346;BME280;62776;50.518;6.732;2023-02-14T14:47:44;97872.31;;;12.18;55.80
74346;BME280;62776;50.518;6.732;2023-02-14T14:50:34;97875.78;;;12.23;53.89
74346;BME280;62776;50.518;6.732;2023-02-14T14:53:40;97883.63;;;12.28;54.00
74346;BME280;62776;50.518;6.732;2023-02-14T14:56:34;97878.41;;;12.23;54.82
74346;BME280;62776;50.518;6.732;2023-02-14T15:02:22;97868.78;;;12.10;52.95
74346;BME280;62776;50.518;6.732;2023-02-14T15:05:31;97878.34;;;12.08;53.11
74346;BME280;62776;50.518;6.732;2023-02-14T15:08:22;97871.41;;;12.15;53.28
74346;BME280;62776;50.518;6.732;2023-02-14T15:11:27;97867.00;;;12.03;54.27
74346;BME280;62776;50.518;6.732;2023-02-14T15:14:34;97871.38;;;12.06;53.81
74346;BME280;62776;50.518;6.732;2023-02-14T15:17:26;97868.72;;;11.98;52.46
74346;BME280;62776;50.518;6.732;2023-02-14T15:20:16;97869.59;;;11.99;53.27
74346;BME280;62776;50.518;6.732;2023-02-14T15:23:03;97860.03;;;11.96;53.87
74346;BME280;62776;50.518;6.732;2023-02-14T15:25:52;97860.84;;;11.86;52.60
74346;BME280;62776;50.518;6.732;2023-02-14T15:28:38;97865.16;;;11.84;52.10
74346;BME280;62776;50.518;6.732;2023-02-14T15:31:34;97863.44;;;11.83;50.46
74346;BME280;62776;50.518;6.732;2023-02-14T15:34:33;97861.69;;;11.80;50.26
74346;BME280;62776;50.518;6.732;2023-02-14T15:37:23;97860.13;;;12.17;49.66
74346;BME280;62776;50.518;6.732;2023-02-14T15:40:22;97861.19;;;13.89;46.22
74346;BME280;62776;50.518;6.732;2023-02-14T15:46:26;97851.47;;;14.30;44.30
74346;BME280;62776;50.518;6.732;2023-02-14T15:49:17;97851.69;;;13.33;46.68
74346;BME280;62776;50.518;6.732;2023-02-14T15:52:13;97853.38;;;12.74;48.44
74346;BME280;62776;50.518;6.732;2023-02-14T15:55:10;97860.19;;;12.32;49.60
74346;BME280;62776;50.518;6.732;2023-02-14T15:58:05;97859.25;;;12.11;51.27
74346;BME280;62776;50.518;6.732;2023-02-14T16:00:56;97853.94;;;11.94;51.86
74346;BME280;62776;50.518;6.732;2023-02-14T16:03:51;97865.16;;;11.78;52.50
74346;BME280;62776;50.518;6.732;2023-02-14T16:06:41;97858.09;;;11.68;52.99
74346;BME280;62776;50.518;6.732;2023-02-14T16:09:34;97862.38;;;11.58;53.70
74346;BME280;62776;50.518;6.732;2023-02-14T16:18:03;97866.41;;;11.18;54.96
74346;BME280;62776;50.518;6.732;2023-02-14T16:24:11;97868.81;;;10.94;55.28
74346;BME280;62776;50.518;6.732;2023-02-14T16:26:58;97866.09;;;10.84;55.77
74346;BME280;62776;50.518;6.732;2023-02-14T16:29:51;97867.72;;;10.74;55.26
74346;BME280;62776;50.518;6.732;2023-02-14T16:32:38;97862.50;;;10.70;54.98
74346;BME280;62776;50.518;6.732;2023-02-14T16:35:25;97871.06;;;10.61;55.12
74346;BME280;62776;50.518;6.732;2023-02-14T16:38:15;97873.53;;;10.47;55.58
74346;BME280;62776;50.518;6.732;2023-02-14T16:41:02;97876.03;;;10.40;56.25
74346;BME280;62776;50.518;6.732;2023-02-14T16:43:49;97875.03;;;10.29;56.50
74346;BME280;62776;50.518;6.732;2023-02-14T16:46:35;97876.66;;;10.19;56.53
74346;BME280;62776;50.518;6.732;2023-02-14T16:49:24;97885.16;;;10.09;56.91
74346;BME280;62776;50.518;6.732;2023-02-14T16:52:15;97884.09;;;9.93;56.42
74346;BME280;62776;50.518;6.732;2023-02-14T16:55:02;97878.84;;;9.90;56.54
74346;BME280;62776;50.518;6.732;2023-02-14T16:57:51;97883.03;;;9.81;57.44
74346;BME280;62776;50.518;6.732;2023-02-14T17:00:38;97882.09;;;9.74;56.87
74346;BME280;62776;50.518;6.732;2023-02-14T17:03:25;97880.19;;;9.64;57.70
74346;BME280;62776;50.518;6.732;2023-02-14T17:06:15;97885.22;;;9.52;57.83
74346;BME280;62776;50.518;6.732;2023-02-14T17:09:06;97890.28;;;9.43;58.72
74346;BME280;62776;50.518;6.732;2023-02-14T17:11:55;97889.22;;;9.32;59.06
74346;BME280;62776;50.518;6.732;2023-02-14T17:14:46;97889.06;;;9.21;59.37
74346;BME280;62776;50.518;6.732;2023-02-14T17:17:35;97894.97;;;9.13;59.90
74346;BME280;62776;50.518;6.732;2023-02-14T17:20:22;97896.63;;;9.08;60.29
74346;BME280;62776;50.518;6.732;2023-02-14T17:23:09;97899.97;;;9.01;60.76
74346;BME280;62776;50.518;6.732;2023-02-14T17:26:02;97898.09;;;8.92;61.40
74346;BME280;62776;50.518;6.732;2023-02-14T17:28:48;97906.63;;;8.86;61.66
74346;BME280;62776;50.518;6.732;2023-02-14T17:31:35;97903.84;;;8.76;62.42
74346;BME280;62776;50.518;6.732;2023-02-14T17:34:22;97905.38;;;8.66;62.41
74346;BME280;62776;50.518;6.732;2023-02-14T17:37:09;97902.66;;;8.60;62.58